Observation data for Northwest Lubbock on 07/19/2019      Previous  Date  Next       Current Mesonet Observations  Soil Data  Daily Summary Page  Observations in Plain Language
KLBW 190500Z 17014G19KT 30/14 A2993 RMK A01 T03020141  RH  039%=      5-min Rain = 0
KLBW 190505Z 17013G18KT 30/14 A2993 RMK A01 T03020141  RH  039%=      5-min Rain = 0
KLBW 190510Z 17014G20KT 30/14 A2993 RMK A01 T03010141  RH  039%=      5-min Rain = 0
KLBW 190515Z 17013G21KT 30/14 A2993 RMK A01 T03000142  RH  040%=      5-min Rain = 0
KLBW 190520Z 17014G20KT 30/14 A2994 RMK A01 T03000142  RH  040%=      5-min Rain = 0
KLBW 190525Z 17013G20KT 30/14 A2994 RMK A01 T02980142  RH  040%=      5-min Rain = 0
KLBW 190530Z 17012G18KT 30/14 A2994 RMK A01 T02980143  RH  040%=      5-min Rain = 0
KLBW 190535Z 18013G20KT 30/14 A2994 RMK A01 T02970143  RH  041%=      5-min Rain = 0
KLBW 190540Z 17012G20KT 30/14 A2994 RMK A01 T02960143  RH  041%=      5-min Rain = 0
KLBW 190545Z 17014G22KT 30/14 A2994 RMK A01 T02960143  RH  041%=      5-min Rain = 0
KLBW 190550Z 18014G20KT 30/14 A2995 RMK A01 T02960143  RH  041%=      5-min Rain = 0
KLBW 190555Z 18015G21KT 30/14 A2995 RMK A01 T02950144  RH  041%=      5-min Rain = 0
KLBW 190600Z 18015G22KT 29/14 A2995 RMK A01 T02940144  RH  042%=      5-min Rain = 0
KLBW 190605Z 18015G20KT 29/14 A2995 RMK A01 T02940144  RH  042%=      5-min Rain = 0
KLBW 190610Z 17012G18KT 29/14 A2995 RMK A01 T02920144  RH  042%=      5-min Rain = 0
KLBW 190615Z 18016G23KT 29/14 A2995 RMK A01 T02920144  RH  042%=      5-min Rain = 0
KLBW 190620Z 18014G20KT 29/14 A2995 RMK A01 T02910144  RH  042%=      5-min Rain = 0
KLBW 190625Z 18016G24KT 29/14 A2995 RMK A01 T02910144  RH  042%=      5-min Rain = 0
KLBW 190630Z 18012G18KT 29/14 A2995 RMK A01 T02890144  RH  043%=      5-min Rain = 0
KLBW 190635Z 18014G21KT 29/14 A2995 RMK A01 T02880144  RH  043%=      5-min Rain = 0
KLBW 190640Z 18014G20KT 29/14 A2995 RMK A01 T02880143  RH  043%=      5-min Rain = 0
KLBW 190645Z 18015G21KT 29/14 A2995 RMK A01 T02870143  RH  043%=      5-min Rain = 0
KLBW 190650Z 18016G22KT 29/14 A2995 RMK A01 T02870142  RH  043%=      5-min Rain = 0
KLBW 190655Z 18014G20KT 29/14 A2995 RMK A01 T02860142  RH  043%=      5-min Rain = 0
KLBW 190700Z 18016G23KT 29/14 A2995 RMK A01 T02850141  RH  043%=      5-min Rain = 0
KLBW 190705Z 18014G23KT 28/14 A2995 RMK A01 T02840139  RH  043%=      5-min Rain = 0
KLBW 190710Z 19014G21KT 28/14 A2995 RMK A01 T02840138  RH  043%=      5-min Rain = 0
KLBW 190715Z 18015G23KT 28/14 A2995 RMK A01 T02830137  RH  042%=      5-min Rain = 0
KLBW 190720Z 18013G20KT 28/14 A2995 RMK A01 T02820136  RH  042%=      5-min Rain = 0
KLBW 190725Z 18014G21KT 28/14 A2995 RMK A01 T02810135  RH  042%=      5-min Rain = 0
KLBW 190730Z 18014G19KT 28/13 A2995 RMK A01 T02810134  RH  042%=      5-min Rain = 0
KLBW 190735Z 18014G22KT 28/13 A2995 RMK A01 T02810133  RH  042%=      5-min Rain = 0
KLBW 190740Z 18014G20KT 28/13 A2995 RMK A01 T02800132  RH  042%=      5-min Rain = 0
KLBW 190745Z 18013G19KT 28/13 A2995 RMK A01 T02790131  RH  042%=      5-min Rain = 0
KLBW 190750Z 18015G24KT 28/13 A2995 RMK A01 T02790130  RH  041%=      5-min Rain = 0
KLBW 190755Z 18013G19KT 28/13 A2995 RMK A01 T02780129  RH  042%=      5-min Rain = 0
KLBW 190800Z 18015G20KT 28/13 A2995 RMK A01 T02780128  RH  041%=      5-min Rain = 0
KLBW 190805Z 18013G20KT 28/13 A2995 RMK A01 T02780128  RH  041%=      5-min Rain = 0
KLBW 190810Z 18015G20KT 28/13 A2995 RMK A01 T02760128  RH  041%=      5-min Rain = 0
KLBW 190815Z 18013G20KT 28/13 A2995 RMK A01 T02760127  RH  041%=      5-min Rain = 0
KLBW 190820Z 18013G18KT 28/13 A2995 RMK A01 T02760127  RH  041%=      5-min Rain = 0
KLBW 190825Z 18013G20KT 27/13 A2995 RMK A01 T02740127  RH  042%=      5-min Rain = 0
KLBW 190830Z 18013G22KT 28/13 A2995 RMK A01 T02750127  RH  041%=      5-min Rain = 0
KLBW 190835Z 18013G18KT 27/13 A2995 RMK A01 T02730127  RH  042%=      5-min Rain = 0
KLBW 190840Z 18012G19KT 27/13 A2995 RMK A01 T02740126  RH  042%=      5-min Rain = 0
KLBW 190845Z 18013G19KT 27/13 A2995 RMK A01 T02730126  RH  042%=      5-min Rain = 0
KLBW 190850Z 18014G19KT 27/13 A2995 RMK A01 T02730125  RH  042%=      5-min Rain = 0
KLBW 190855Z 18013G20KT 27/13 A2995 RMK A01 T02720125  RH  042%=      5-min Rain = 0
KLBW 190900Z 18012G18KT 27/13 A2995 RMK A01 T02720125  RH  042%=      5-min Rain = 0
KLBW 190905Z 18013G21KT 27/13 A2995 RMK A01 T02710125  RH  042%=      5-min Rain = 0
KLBW 190910Z 18013G18KT 27/13 A2995 RMK A01 T02710125  RH  042%=      5-min Rain = 0
KLBW 190915Z 19013G22KT 27/13 A2995 RMK A01 T02710125  RH  042%=      5-min Rain = 0
KLBW 190920Z 18011G17KT 27/13 A2995 RMK A01 T02690125  RH  042%=      5-min Rain = 0
KLBW 190925Z 18011G19KT 27/13 A2995 RMK A01 T02680125  RH  043%=      5-min Rain = 0
KLBW 190930Z 18012G17KT 27/13 A2995 RMK A01 T02680125  RH  043%=      5-min Rain = 0
KLBW 190935Z 19011G18KT 27/13 A2995 RMK A01 T02680125  RH  043%=      5-min Rain = 0
KLBW 190940Z 18012KT 27/13 A2995 RMK A01 T02670125  RH  043%=      5-min Rain = 0
KLBW 190945Z 18013G18KT 27/13 A2995 RMK A01 T02660125  RH  043%=      5-min Rain = 0
KLBW 190950Z 18011G18KT 27/13 A2995 RMK A01 T02660125  RH  043%=      5-min Rain = 0
KLBW 190955Z 18013G18KT 27/13 A2995 RMK A01 T02650125  RH  043%=      5-min Rain = 0
KLBW 191000Z 18012G18KT 26/13 A2995 RMK A01 T02640125  RH  044%=      5-min Rain = 0
KLBW 191005Z 17012G17KT 26/13 A2995 RMK A01 T02640125  RH  044%=      5-min Rain = 0
KLBW 191010Z 17011G17KT 26/13 A2995 RMK A01 T02620125  RH  044%=      5-min Rain = 0
KLBW 191015Z 17011KT 26/13 A2995 RMK A01 T02610125  RH  045%=      5-min Rain = 0
KLBW 191020Z 17011G16KT 26/13 A2995 RMK A01 T02600126  RH  045%=      5-min Rain = 0
KLBW 191025Z 17012G17KT 26/13 A2995 RMK A01 T02590126  RH  045%=      5-min Rain = 0
KLBW 191030Z 17011G16KT 26/13 A2995 RMK A01 T02580126  RH  046%=      5-min Rain = 0
KLBW 191035Z 17012KT 26/13 A2996 RMK A01 T02570126  RH  046%=      5-min Rain = 0
KLBW 191040Z 17011KT 26/13 A2995 RMK A01 T02560126  RH  046%=      5-min Rain = 0
KLBW 191045Z 17012KT 26/13 A2995 RMK A01 T02550126  RH  047%=      5-min Rain = 0
KLBW 191050Z 17012G19KT 25/13 A2995 RMK A01 T02540126  RH  047%=      5-min Rain = 0
KLBW 191055Z 17013G19KT 26/13 A2996 RMK A01 T02550127  RH  047%=      5-min Rain = 0
KLBW 191100Z 17012KT 25/13 A2996 RMK A01 T02530127  RH  047%=      5-min Rain = 0
KLBW 191105Z 17012G17KT 25/13 A2996 RMK A01 T02520128  RH  048%=      5-min Rain = 0
KLBW 191110Z 17012G20KT 25/13 A2996 RMK A01 T02520128  RH  048%=      5-min Rain = 0
KLBW 191115Z 17012G18KT 25/13 A2996 RMK A01 T02510128  RH  048%=      5-min Rain = 0
KLBW 191120Z 17013G18KT 25/13 A2996 RMK A01 T02500129  RH  049%=      5-min Rain = 0
KLBW 191125Z 17013G19KT 25/13 A2996 RMK A01 T02500129  RH  049%=      5-min Rain = 0
KLBW 191130Z 17013G19KT 25/13 A2996 RMK A01 T02490129  RH  049%=      5-min Rain = 0
KLBW 191135Z 17012G17KT 25/13 A2996 RMK A01 T02480129  RH  049%=      5-min Rain = 0
KLBW 191140Z 17014G22KT 25/13 A2996 RMK A01 T02480129  RH  050%=      5-min Rain = 0
KLBW 191145Z 17012G18KT 25/13 A2996 RMK A01 T02470130  RH  050%=      5-min Rain = 0
KLBW 191150Z 17013G20KT 25/13 A2996 RMK A01 T02470130  RH  050%=      5-min Rain = 0
KLBW 191155Z 17013G19KT 25/13 A2996 RMK A01 T02460131  RH  051%=      5-min Rain = 0
KLBW 191200Z 17012G19KT 25/13 A2996 RMK A01 T02450132  RH  051%=      5-min Rain = 0
KLBW 191205Z 18014G19KT 25/13 A2996 RMK A01 T02450133  RH  052%=      5-min Rain = 0
KLBW 191210Z 17011G18KT 24/13 A2996 RMK A01 T02440134  RH  052%=      5-min Rain = 0
KLBW 191215Z 18013G24KT 25/14 A2996 RMK A01 T02450135  RH  052%=      5-min Rain = 0
KLBW 191220Z 17014G19KT 25/14 A2996 RMK A01 T02460136  RH  052%=      5-min Rain = 0
KLBW 191225Z 18012G17KT 25/14 A2996 RMK A01 T02460137  RH  053%=      5-min Rain = 0
KLBW 191230Z 17012G17KT 25/14 A2996 RMK A01 T02460138  RH  053%=      5-min Rain = 0
KLBW 191235Z 17013KT 25/14 A2996 RMK A01 T02470139  RH  053%=      5-min Rain = 0
KLBW 191240Z 17012G19KT 25/14 A2996 RMK A01 T02480140  RH  053%=      5-min Rain = 0
KLBW 191245Z 17013G20KT 25/14 A2996 RMK A01 T02490141  RH  053%=      5-min Rain = 0
KLBW 191250Z 17013G19KT 25/14 A2996 RMK A01 T02500142  RH  053%=      5-min Rain = 0
KLBW 191255Z 17014G21KT 25/14 A2996 RMK A01 T02510143  RH  053%=      5-min Rain = 0
KLBW 191300Z 17013G18KT 25/14 A2996 RMK A01 T02520144  RH  053%=      5-min Rain = 0
KLBW 191305Z 17014G23KT 25/15 A2996 RMK A01 T02530145  RH  053%=      5-min Rain = 0
KLBW 191310Z 17013G21KT 26/15 A2996 RMK A01 T02550146  RH  053%=      5-min Rain = 0
KLBW 191315Z 17014G19KT 26/15 A2996 RMK A01 T02560146  RH  053%=      5-min Rain = 0
KLBW 191320Z 17012G18KT 26/15 A2996 RMK A01 T02580148  RH  053%=      5-min Rain = 0
KLBW 191325Z 17013G19KT 26/15 A2996 RMK A01 T02590148  RH  053%=      5-min Rain = 0
KLBW 191330Z 18013G21KT 26/15 A2996 RMK A01 T02600149  RH  053%=      5-min Rain = 0
KLBW 191335Z 18014G19KT 26/15 A2996 RMK A01 T02620150  RH  052%=      5-min Rain = 0
KLBW 191340Z 17013G19KT 26/15 A2996 RMK A01 T02630150  RH  052%=      5-min Rain = 0
KLBW 191345Z 17015G20KT 27/15 A2996 RMK A01 T02650151  RH  052%=      5-min Rain = 0
KLBW 191350Z 17014G21KT 27/15 A2996 RMK A01 T02670151  RH  051%=      5-min Rain = 0
KLBW 191355Z 18016G23KT 27/15 A2996 RMK A01 T02680151  RH  051%=      5-min Rain = 0
KLBW 191400Z 18014G21KT 27/15 A2997 RMK A01 T02700152  RH  051%=      5-min Rain = 0
KLBW 191405Z 18016G21KT 27/15 A2997 RMK A01 T02720152  RH  050%=      5-min Rain = 0
KLBW 191410Z 18013G19KT 27/15 A2997 RMK A01 T02740153  RH  050%=      5-min Rain = 0
KLBW 191415Z 19011G18KT 28/15 A2997 RMK A01 T02780154  RH  049%=      5-min Rain = 0
KLBW 191420Z 18013G21KT 28/15 A2997 RMK A01 T02800154  RH  048%=      5-min Rain = 0
KLBW 191425Z 19014G21KT 28/15 A2997 RMK A01 T02780153  RH  049%=      5-min Rain = 0
KLBW 191430Z 19015G22KT 28/15 A2997 RMK A01 T02800153  RH  048%=      5-min Rain = 0
KLBW 191435Z 18014G21KT 28/15 A2997 RMK A01 T02840154  RH  047%=      5-min Rain = 0
KLBW 191440Z 18015G24KT 29/15 A2997 RMK A01 T02850154  RH  047%=      5-min Rain = 0
KLBW 191445Z 19016G23KT 28/15 A2997 RMK A01 T02830153  RH  047%=      5-min Rain = 0
KLBW 191450Z 19015G20KT 29/16 A2997 RMK A01 T02850155  RH  047%=      5-min Rain = 0
KLBW 191455Z 19017G22KT 29/15 A2997 RMK A01 T02860154  RH  046%=      5-min Rain = 0
KLBW 191500Z 19016G22KT 29/15 A2997 RMK A01 T02880154  RH  046%=      5-min Rain = 0
KLBW 191505Z 19013G20KT 29/16 A2997 RMK A01 T02910155  RH  046%=      5-min Rain = 0
KLBW 191510Z 19014G19KT 29/16 A2997 RMK A01 T02920155  RH  046%=      5-min Rain = 0
KLBW 191515Z 18014G20KT 29/16 A2997 RMK A01 T02940156  RH  045%=      5-min Rain = 0
KLBW 191520Z 18011G17KT 30/16 A2997 RMK A01 T03000158  RH  044%=      5-min Rain = 0
KLBW 191525Z 20014KT 30/16 A2997 RMK A01 T02970156  RH  044%=      5-min Rain = 0
KLBW 191530Z 19014G19KT 30/16 A2997 RMK A01 T03000156  RH  044%=      5-min Rain = 0
KLBW 191535Z 19013G19KT 30/16 A2997 RMK A01 T03020158  RH  044%=      5-min Rain = 0
KLBW 191540Z 17013G20KT 31/16 A2997 RMK A01 T03050157  RH  043%=      5-min Rain = 0
KLBW 191545Z 17012G17KT 31/16 A2997 RMK A01 T03070158  RH  043%=      5-min Rain = 0
KLBW 191550Z 17014G19KT 31/16 A2997 RMK A01 T03090158  RH  042%=      5-min Rain = 0
KLBW 191555Z 19014G20KT 31/16 A2997 RMK A01 T03090156  RH  041%=      5-min Rain = 0
KLBW 191600Z 19013G21KT 31/16 A2997 RMK A01 T03110157  RH  041%=      5-min Rain = 0
KLBW 191605Z 18013G19KT 32/16 A2997 RMK A01 T03160158  RH  041%=      5-min Rain = 0
KLBW 191610Z 17013KT 32/16 A2997 RMK A01 T03170158  RH  040%=      5-min Rain = 0
KLBW 191615Z 19013G18KT 32/16 A2997 RMK A01 T03180156  RH  040%=      5-min Rain = 0
KLBW 191620Z 18012G20KT 32/16 A2997 RMK A01 T03200157  RH  039%=      5-min Rain = 0
KLBW 191625Z 18011G17KT 32/16 A2996 RMK A01 T03230157  RH  039%=      5-min Rain = 0
KLBW 191630Z 18012G17KT 33/16 A2996 RMK A01 T03280158  RH  038%=      5-min Rain = 0
KLBW 191635Z 18013G18KT 33/16 A2996 RMK A01 T03290156  RH  037%=      5-min Rain = 0
KLBW 191640Z 19012G19KT 33/16 A2996 RMK A01 T03280155  RH  037%=      5-min Rain = 0
KLBW 191645Z 20011G17KT 33/16 A2996 RMK A01 T03310156  RH  037%=      5-min Rain = 0
KLBW 191650Z 19011G17KT 33/16 A2996 RMK A01 T03310157  RH  037%=      5-min Rain = 0
KLBW 191655Z 19012G19KT 34/16 A2996 RMK A01 T03350156  RH  036%=      5-min Rain = 0
KLBW 191700Z 19014KT 33/15 A2996 RMK A01 T03340153  RH  035%=      5-min Rain = 0
KLBW 191705Z 21014G19KT 34/16 A2996 RMK A01 T03370155  RH  035%=      5-min Rain = 0
KLBW 191710Z 20012G17KT 34/15 A2996 RMK A01 T03400154  RH  034%=      5-min Rain = 0
KLBW 191715Z 20012G17KT 34/15 A2996 RMK A01 T03430154  RH  034%=      5-min Rain = 0
KLBW 191720Z 19012G18KT 35/15 A2996 RMK A01 T03450154  RH  033%=      5-min Rain = 0
KLBW 191725Z 19013G18KT 35/15 A2996 RMK A01 T03450151  RH  033%=      5-min Rain = 0
KLBW 191730Z 20013G19KT 35/15 A2996 RMK A01 T03470152  RH  033%=      5-min Rain = 0
KLBW 191735Z 20011G16KT 35/15 A2996 RMK A01 T03490151  RH  032%=      5-min Rain = 0
KLBW 191740Z 20012G17KT 35/15 A2995 RMK A01 T03510151  RH  032%=      5-min Rain = 0
KLBW 191745Z 20010G15KT 35/15 A2995 RMK A01 T03540152  RH  031%=      5-min Rain = 0
KLBW 191750Z 21014G19KT 35/15 A2995 RMK A01 T03510149  RH  031%=      5-min Rain = 0
KLBW 191755Z 21012G18KT 35/15 A2995 RMK A01 T03540149  RH  031%=      5-min Rain = 0
KLBW 191800Z 21013G18KT 36/15 A2995 RMK A01 T03560150  RH  031%=      5-min Rain = 0
KLBW 191805Z 19011KT 36/15 A2995 RMK A01 T03610147  RH  029%=      5-min Rain = 0
KLBW 191810Z 18014G19KT 36/15 A2995 RMK A01 T03610147  RH  029%=      5-min Rain = 0
KLBW 191815Z 19012G18KT 36/15 A2995 RMK A01 T03630146  RH  029%=      5-min Rain = 0
KLBW 191820Z 18013G20KT 37/15 A2995 RMK A01 T03680147  RH  028%=      5-min Rain = 0
KLBW 191825Z 20012G19KT 37/14 A2995 RMK A01 T03650142  RH  028%=      5-min Rain = 0
KLBW 191830Z 20011G19KT 37/15 A2995 RMK A01 T03660146  RH  028%=      5-min Rain = 0
KLBW 191835Z 19010G17KT 37/15 A2995 RMK A01 T03700145  RH  028%=      5-min Rain = 0
KLBW 191840Z 19013G18KT 37/15 A2995 RMK A01 T03720145  RH  027%=      5-min Rain = 0
KLBW 191845Z 20012G17KT 37/14 A2994 RMK A01 T03680143  RH  027%=      5-min Rain = 0
KLBW 191850Z 21013KT 37/15 A2994 RMK A01 T03710146  RH  027%=      5-min Rain = 0
KLBW 191855Z 19013G18KT 37/14 A2994 RMK A01 T03730142  RH  026%=      5-min Rain = 0
KLBW 191900Z 18011G18KT 37/15 A2994 RMK A01 T03720145  RH  027%=      5-min Rain = 0
KLBW 191905Z 16012G20KT 38/14 A2994 RMK A01 T03770144  RH  026%=      5-min Rain = 0
KLBW 191910Z 19013G18KT 38/14 A2994 RMK A01 T03780142  RH  026%=      5-min Rain = 0
KLBW 191915Z 18011KT 38/14 A2994 RMK A01 T03770144  RH  026%=      5-min Rain = 0
KLBW 191920Z 19012G17KT 38/14 A2994 RMK A01 T03840140  RH  025%=      5-min Rain = 0
KLBW 191925Z 21011G16KT 38/14 A2994 RMK A01 T03780138  RH  025%=      5-min Rain = 0
KLBW 191930Z 18013G18KT 38/14 A2993 RMK A01 T03820135  RH  024%=      5-min Rain = 0
KLBW 191935Z 19013G19KT 38/14 A2993 RMK A01 T03810135  RH  024%=      5-min Rain = 0
KLBW 191940Z 17012KT 38/13 A2993 RMK A01 T03830132  RH  023%=      5-min Rain = 0
KLBW 191945Z 18011KT 39/13 A2993 RMK A01 T03870129  RH  022%=      5-min Rain = 0
KLBW 191950Z 17013G20KT 39/13 A2993 RMK A01 T03870130  RH  022%=      5-min Rain = 0
KLBW 191955Z 17012KT 39/13 A2993 RMK A01 T03860132  RH  023%=      5-min Rain = 0
KLBW 192000Z 18012G20KT 39/13 A2992 RMK A01 T03850127  RH  022%=      5-min Rain = 0
KLBW 192005Z 17013G18KT 39/12 A2992 RMK A01 T03880123  RH  021%=      5-min Rain = 0
KLBW 192010Z 18011G17KT 39/12 A2992 RMK A01 T03870121  RH  021%=      5-min Rain = 0
KLBW 192015Z 20009G16KT 39/12 A2992 RMK A01 T03880116  RH  020%=      5-min Rain = 0
KLBW 192020Z 18011G17KT 39/12 A2992 RMK A01 T03870115  RH  020%=      5-min Rain = 0
KLBW 192025Z 18012G17KT 39/12 A2992 RMK A01 T03890120  RH  021%=      5-min Rain = 0
KLBW 192030Z 19010G15KT 39/12 A2991 RMK A01 T03870120  RH  021%=      5-min Rain = 0
KLBW 192035Z 18009G15KT 39/12 A2991 RMK A01 T03930123  RH  021%=      5-min Rain = 0
KLBW 192040Z 18013G18KT 39/12 A2992 RMK A01 T03910118  RH  020%=      5-min Rain = 0
KLBW 192045Z 17009G14KT 39/11 A2991 RMK A01 T03880114  RH  020%=      5-min Rain = 0
KLBW 192050Z 16012G17KT 39/11 A2991 RMK A01 T03910112  RH  020%=      5-min Rain = 0
KLBW 192055Z 16012G18KT 39/11 A2991 RMK A01 T03860114  RH  020%=      5-min Rain = 0
KLBW 192100Z 16010G15KT 39/12 A2991 RMK A01 T03920115  RH  020%=      5-min Rain = 0
KLBW 192105Z 17015G21KT 39/11 A2991 RMK A01 T03890111  RH  020%=      5-min Rain = 0
KLBW 192110Z 17011G16KT 39/12 A2991 RMK A01 T03910116  RH  020%=      5-min Rain = 0
KLBW 192115Z 17011KT 39/11 A2991 RMK A01 T03940114  RH  020%=      5-min Rain = 0
KLBW 192120Z 19011G17KT 39/12 A299 RMK A01 T03910117  RH  020%=      5-min Rain = 0
KLBW 192125Z 15011G17KT 40/12 A299 RMK A01 T03960117  RH  020%=      5-min Rain = 0
KLBW 192130Z 18013G19KT 39/12 A299 RMK A01 T03910115  RH  020%=      5-min Rain = 0
KLBW 192135Z 17013G22KT 39/12 A299 RMK A01 T03920117  RH  020%=      5-min Rain = 0
KLBW 192140Z 16012G21KT 39/11 A299 RMK A01 T03930114  RH  020%=      5-min Rain = 0
KLBW 192145Z 16011G17KT 39/11 A299 RMK A01 T03920114  RH  020%=      5-min Rain = 0
KLBW 192150Z 17012G17KT 39/12 A299 RMK A01 T03910117  RH  020%=      5-min Rain = 0
KLBW 192155Z 18013G21KT 39/11 A299 RMK A01 T03890113  RH  020%=      5-min Rain = 0
KLBW 192200Z 19011G16KT 39/11 A299 RMK A01 T03900110  RH  019%=      5-min Rain = 0
KLBW 192205Z 20011G20KT 39/11 A299 RMK A01 T03860114  RH  020%=      5-min Rain = 0
KLBW 192210Z 17015G21KT 39/12 A299 RMK A01 T03890115  RH  020%=      5-min Rain = 0
KLBW 192215Z 18013G18KT 39/11 A299 RMK A01 T03860114  RH  020%=      5-min Rain = 0
KLBW 192220Z 19013G18KT 39/11 A2989 RMK A01 T03880114  RH  020%=      5-min Rain = 0
KLBW 192225Z 19011G17KT 39/11 A2989 RMK A01 T03870114  RH  020%=      5-min Rain = 0
KLBW 192230Z 18011G18KT 39/12 A2989 RMK A01 T03850115  RH  021%=      5-min Rain = 0
KLBW 192235Z 18012KT 38/11 A2989 RMK A01 T03820113  RH  021%=      5-min Rain = 0
KLBW 192240Z 17014G20KT 38/11 A2989 RMK A01 T03840113  RH  020%=      5-min Rain = 0
KLBW 192245Z 18014G20KT 39/11 A2989 RMK A01 T03850111  RH  020%=      5-min Rain = 0
KLBW 192250Z 17010G17KT 38/11 A2989 RMK A01 T03780110  RH  021%=      5-min Rain = 0
KLBW 192255Z 17011KT 38/11 A2989 RMK A01 T03820110  RH  020%=      5-min Rain = 0
KLBW 192300Z 17010G18KT 39/11 A2988 RMK A01 T03860111  RH  020%=      5-min Rain = 0
KLBW 192305Z 18010G15KT 39/11 A2988 RMK A01 T03880112  RH  020%=      5-min Rain = 0
KLBW 192310Z 15013G20KT 38/11 A2988 RMK A01 T03830109  RH  020%=      5-min Rain = 0
KLBW 192315Z 17011G18KT 38/11 A2988 RMK A01 T03830112  RH  021%=      5-min Rain = 0
KLBW 192320Z 16012G19KT 38/11 A2988 RMK A01 T03820112  RH  021%=      5-min Rain = 0
KLBW 192325Z 15010G17KT 38/11 A2988 RMK A01 T03810112  RH  021%=      5-min Rain = 0
KLBW 192330Z 17011G16KT 38/11 A2988 RMK A01 T03810113  RH  021%=      5-min Rain = 0
KLBW 192335Z 17010G15KT 38/11 A2988 RMK A01 T03840114  RH  021%=      5-min Rain = 0
KLBW 192340Z 16009G15KT 38/11 A2988 RMK A01 T03810114  RH  021%=      5-min Rain = 0
KLBW 192345Z 19012G19KT 38/11 A2988 RMK A01 T03810109  RH  020%=      5-min Rain = 0
KLBW 192350Z 18012G18KT 38/11 A2988 RMK A01 T03750110  RH  021%=      5-min Rain = 0
KLBW 192355Z 16013G19KT 38/11 A2988 RMK A01 T03750111  RH  021%=      5-min Rain = 0
KLBW 200000Z 17013KT 37/11 A2988 RMK A01 T03720109  RH  021%=      5-min Rain = 0
KLBW 200005Z 17013G18KT 37/11 A2988 RMK A01 T03720109  RH  021%=      5-min Rain = 0
KLBW 200010Z 17013G19KT 37/11 A2988 RMK A01 T03700106  RH  021%=      5-min Rain = 0
KLBW 200015Z 18013G18KT 37/11 A2988 RMK A01 T03690108  RH  021%=      5-min Rain = 0
KLBW 200020Z 18011G16KT 37/11 A2988 RMK A01 T03700109  RH  021%=      5-min Rain = 0
KLBW 200025Z 17012G17KT 37/11 A2988 RMK A01 T03680108  RH  022%=      5-min Rain = 0
KLBW 200030Z 17011G17KT 37/11 A2988 RMK A01 T03670111  RH  022%=      5-min Rain = 0
KLBW 200035Z 17012G17KT 37/11 A2988 RMK A01 T03670111  RH  022%=      5-min Rain = 0
KLBW 200040Z 17012G17KT 37/11 A2988 RMK A01 T03650110  RH  022%=      5-min Rain = 0
KLBW 200045Z 17010KT 36/11 A2989 RMK A01 T03640112  RH  023%=      5-min Rain = 0
KLBW 200050Z 18012G17KT 36/11 A2989 RMK A01 T03620109  RH  023%=      5-min Rain = 0
KLBW 200055Z 18012KT 36/11 A2989 RMK A01 T03590110  RH  023%=      5-min Rain = 0
KLBW 200100Z 17013G18KT 36/11 A2989 RMK A01 T03580111  RH  023%=      5-min Rain = 0
KLBW 200105Z 17012G17KT 36/11 A2989 RMK A01 T03560112  RH  024%=      5-min Rain = 0
KLBW 200110Z 16013KT 36/11 A2989 RMK A01 T03550112  RH  024%=      5-min Rain = 0
KLBW 200115Z 17011KT 35/11 A2989 RMK A01 T03540113  RH  024%=      5-min Rain = 0
KLBW 200120Z 16011G16KT 35/11 A2989 RMK A01 T03520113  RH  024%=      5-min Rain = 0
KLBW 200125Z 16010G15KT 35/11 A2989 RMK A01 T03500114  RH  025%=      5-min Rain = 0
KLBW 200130Z 16008KT 35/12 A2989 RMK A01 T03470115  RH  025%=      5-min Rain = 0
KLBW 200135Z 17010G15KT 35/11 A2989 RMK A01 T03460113  RH  025%=      5-min Rain = 0
KLBW 200140Z 16011G16KT 34/11 A2989 RMK A01 T03440112  RH  025%=      5-min Rain = 0
KLBW 200145Z 16011G17KT 34/11 A2989 RMK A01 T03430113  RH  026%=      5-min Rain = 0
KLBW 200150Z 17010KT 34/11 A2989 RMK A01 T03420113  RH  026%=      5-min Rain = 0
KLBW 200155Z 16008G14KT 34/12 A299 RMK A01 T03390115  RH  027%=      5-min Rain = 0
KLBW 200200Z 16010KT 34/12 A299 RMK A01 T03370118  RH  027%=      5-min Rain = 0
KLBW 200205Z 16010G17KT 34/12 A299 RMK A01 T03350119  RH  028%=      5-min Rain = 0
KLBW 200210Z 16011G16KT 34/12 A299 RMK A01 T03360119  RH  028%=      5-min Rain = 0
KLBW 200215Z 16010G16KT 33/12 A299 RMK A01 T03340119  RH  028%=      5-min Rain = 0
KLBW 200220Z 17010G16KT 33/12 A2991 RMK A01 T03330118  RH  028%=      5-min Rain = 0
KLBW 200225Z 16011G16KT 33/12 A2991 RMK A01 T03320118  RH  028%=      5-min Rain = 0
KLBW 200230Z 17010KT 33/12 A2991 RMK A01 T03310118  RH  028%=      5-min Rain = 0
KLBW 200235Z 17010KT 33/12 A2991 RMK A01 T03300117  RH  028%=      5-min Rain = 0
KLBW 200240Z 17010KT 33/12 A2991 RMK A01 T03300117  RH  028%=      5-min Rain = 0
KLBW 200245Z 17011G18KT 33/12 A2991 RMK A01 T03290117  RH  029%=      5-min Rain = 0
KLBW 200250Z 17010G16KT 33/12 A2992 RMK A01 T03290117  RH  028%=      5-min Rain = 0
KLBW 200255Z 17010KT 33/12 A2992 RMK A01 T03280117  RH  029%=      5-min Rain = 0
KLBW 200300Z 17009G14KT 33/12 A2992 RMK A01 T03250117  RH  029%=      5-min Rain = 0
KLBW 200305Z 16010KT 33/12 A2992 RMK A01 T03250117  RH  029%=      5-min Rain = 0
KLBW 200310Z 16011G18KT 33/12 A2992 RMK A01 T03250118  RH  029%=      5-min Rain = 0
KLBW 200315Z 16010KT 32/12 A2992 RMK A01 T03230118  RH  030%=      5-min Rain = 0
KLBW 200320Z 17010G16KT 32/12 A2993 RMK A01 T03210118  RH  030%=      5-min Rain = 0
KLBW 200325Z 17010KT 32/12 A2993 RMK A01 T03210119  RH  030%=      5-min Rain = 0
KLBW 200330Z 17010KT 32/12 A2993 RMK A01 T03200119  RH  030%=      5-min Rain = 0
KLBW 200335Z 17011G17KT 32/12 A2993 RMK A01 T03190119  RH  031%=      5-min Rain = 0
KLBW 200340Z 17011G18KT 32/12 A2993 RMK A01 T03190119  RH  031%=      5-min Rain = 0
KLBW 200345Z 17011G18KT 32/12 A2994 RMK A01 T03180120  RH  031%=      5-min Rain = 0
KLBW 200350Z 17013KT 32/12 A2994 RMK A01 T03170119  RH  031%=      5-min Rain = 0
KLBW 200355Z 16012G18KT 32/12 A2994 RMK A01 T03160119  RH  031%=      5-min Rain = 0
KLBW 200400Z 17012G18KT 32/12 A2994 RMK A01 T03150118  RH  031%=      5-min Rain = 0
KLBW 200405Z 16013G18KT 31/12 A2994 RMK A01 T03140118  RH  031%=      5-min Rain = 0
KLBW 200410Z 17014G19KT 31/12 A2994 RMK A01 T03140117  RH  031%=      5-min Rain = 0
KLBW 200415Z 17011G17KT 31/12 A2995 RMK A01 T03120117  RH  031%=      5-min Rain = 0
KLBW 200420Z 16011G16KT 31/12 A2995 RMK A01 T03100118  RH  032%=      5-min Rain = 0
KLBW 200425Z 17014G20KT 31/12 A2995 RMK A01 T03090115  RH  032%=      5-min Rain = 0
KLBW 200430Z 17014G20KT 31/11 A2995 RMK A01 T03100113  RH  031%=      5-min Rain = 0
KLBW 200435Z 18015G20KT 31/11 A2995 RMK A01 T03090111  RH  031%=      5-min Rain = 0
KLBW 200440Z 17014G20KT 31/11 A2995 RMK A01 T03080109  RH  030%=      5-min Rain = 0
KLBW 200445Z 17011G17KT 31/11 A2995 RMK A01 T03060109  RH  031%=      5-min Rain = 0
KLBW 200450Z 17013G19KT 31/11 A2995 RMK A01 T03050107  RH  031%=      5-min Rain = 0
KLBW 200455Z 17013G20KT 30/11 A2995 RMK A01 T03040106  RH  030%=      5-min Rain = 0

Page generated in 0.0127 seconds.